sensor_id;sensor_type;location;lat;lon;timestamp;P1;durP1;ratioP1;P2;durP2;ratioP2
42036;SDS011;30340;52.004;5.908;2023-08-07T00:02:05;4.20;;;1.50;;
42036;SDS011;30340;52.004;5.908;2023-08-07T00:04:31;3.78;;;1.35;;
42036;SDS011;30340;52.004;5.908;2023-08-07T00:06:57;5.35;;;1.35;;
42036;SDS011;30340;52.004;5.908;2023-08-07T00:09:23;4.28;;;1.40;;
42036;SDS011;30340;52.004;5.908;2023-08-07T00:11:48;2.65;;;1.25;;
42036;SDS011;30340;52.004;5.908;2023-08-07T00:14:14;2.00;;;1.20;;
42036;SDS011;30340;52.004;5.908;2023-08-07T00:16:40;3.15;;;1.48;;
42036;SDS011;30340;52.004;5.908;2023-08-07T00:19:06;1.95;;;1.02;;
42036;SDS011;30340;52.004;5.908;2023-08-07T00:21:32;1.38;;;0.90;;
42036;SDS011;30340;52.004;5.908;2023-08-07T00:23:59;2.63;;;1.10;;
42036;SDS011;30340;52.004;5.908;2023-08-07T00:26:25;3.90;;;1.10;;
42036;SDS011;30340;52.004;5.908;2023-08-07T00:28:50;3.13;;;1.20;;
42036;SDS011;30340;52.004;5.908;2023-08-07T00:31:16;2.63;;;1.23;;
42036;SDS011;30340;52.004;5.908;2023-08-07T00:33:41;3.40;;;1.27;;
42036;SDS011;30340;52.004;5.908;2023-08-07T00:36:07;1.38;;;1.10;;
42036;SDS011;30340;52.004;5.908;2023-08-07T00:38:33;2.22;;;1.10;;
42036;SDS011;30340;52.004;5.908;2023-08-07T00:40:59;4.63;;;1.40;;
42036;SDS011;30340;52.004;5.908;2023-08-07T00:43:25;2.13;;;1.20;;
42036;SDS011;30340;52.004;5.908;2023-08-07T00:45:50;3.83;;;1.35;;
42036;SDS011;30340;52.004;5.908;2023-08-07T00:48:16;4.18;;;1.45;;
42036;SDS011;30340;52.004;5.908;2023-08-07T00:50:42;4.47;;;1.48;;
42036;SDS011;30340;52.004;5.908;2023-08-07T00:53:11;2.80;;;1.20;;
42036;SDS011;30340;52.004;5.908;2023-08-07T00:55:36;2.80;;;1.38;;
42036;SDS011;30340;52.004;5.908;2023-08-07T00:58:02;3.33;;;1.30;;
42036;SDS011;30340;52.004;5.908;2023-08-07T01:00:31;4.28;;;1.45;;
42036;SDS011;30340;52.004;5.908;2023-08-07T01:02:56;2.88;;;1.40;;
42036;SDS011;30340;52.004;5.908;2023-08-07T01:05:23;3.50;;;1.30;;
42036;SDS011;30340;52.004;5.908;2023-08-07T01:07:50;4.75;;;1.50;;
42036;SDS011;30340;52.004;5.908;2023-08-07T01:10:19;3.95;;;1.63;;
42036;SDS011;30340;52.004;5.908;2023-08-07T01:12:52;5.05;;;1.70;;
42036;SDS011;30340;52.004;5.908;2023-08-07T01:15:28;3.45;;;1.40;;
42036;SDS011;30340;52.004;5.908;2023-08-07T01:17:57;5.82;;;1.50;;
42036;SDS011;30340;52.004;5.908;2023-08-07T01:20:24;4.00;;;1.77;;
42036;SDS011;30340;52.004;5.908;2023-08-07T01:22:50;4.13;;;1.63;;
42036;SDS011;30340;52.004;5.908;2023-08-07T01:25:15;3.83;;;1.60;;
42036;SDS011;30340;52.004;5.908;2023-08-07T01:27:46;4.60;;;1.70;;
42036;SDS011;30340;52.004;5.908;2023-08-07T01:35:33;5.03;;;1.60;;
42036;SDS011;30340;52.004;5.908;2023-08-07T01:38:03;4.38;;;1.60;;
42036;SDS011;30340;52.004;5.908;2023-08-07T01:40:30;4.80;;;1.88;;
42036;SDS011;30340;52.004;5.908;2023-08-07T01:42:56;5.28;;;1.90;;
42036;SDS011;30340;52.004;5.908;2023-08-07T01:45:23;4.85;;;1.67;;
42036;SDS011;30340;52.004;5.908;2023-08-07T01:47:50;5.13;;;1.73;;
42036;SDS011;30340;52.004;5.908;2023-08-07T01:50:17;6.53;;;1.65;;
42036;SDS011;30340;52.004;5.908;2023-08-07T01:52:43;6.45;;;2.00;;
42036;SDS011;30340;52.004;5.908;2023-08-07T01:55:09;6.10;;;2.00;;
42036;SDS011;30340;52.004;5.908;2023-08-07T01:57:34;3.78;;;1.70;;
42036;SDS011;30340;52.004;5.908;2023-08-07T02:00:00;4.97;;;1.77;;
42036;SDS011;30340;52.004;5.908;2023-08-07T02:02:25;5.80;;;2.05;;
42036;SDS011;30340;52.004;5.908;2023-08-07T02:04:51;9.55;;;2.45;;
42036;SDS011;30340;52.004;5.908;2023-08-07T02:07:16;5.30;;;2.03;;
42036;SDS011;30340;52.004;5.908;2023-08-07T02:09:42;5.50;;;2.00;;
42036;SDS011;30340;52.004;5.908;2023-08-07T02:12:08;5.72;;;1.98;;
42036;SDS011;30340;52.004;5.908;2023-08-07T02:14:33;5.25;;;1.90;;
42036;SDS011;30340;52.004;5.908;2023-08-07T02:16:59;5.50;;;2.13;;
42036;SDS011;30340;52.004;5.908;2023-08-07T02:19:24;8.77;;;2.45;;
42036;SDS011;30340;52.004;5.908;2023-08-07T02:21:50;3.95;;;1.90;;
42036;SDS011;30340;52.004;5.908;2023-08-07T02:24:15;7.55;;;2.20;;
42036;SDS011;30340;52.004;5.908;2023-08-07T02:26:41;5.45;;;2.00;;
42036;SDS011;30340;52.004;5.908;2023-08-07T02:29:06;5.05;;;2.03;;
42036;SDS011;30340;52.004;5.908;2023-08-07T02:31:34;5.80;;;2.17;;
42036;SDS011;30340;52.004;5.908;2023-08-07T02:33:59;8.05;;;2.17;;
42036;SDS011;30340;52.004;5.908;2023-08-07T02:36:25;6.85;;;2.40;;
42036;SDS011;30340;52.004;5.908;2023-08-07T02:38:50;5.53;;;2.40;;
42036;SDS011;30340;52.004;5.908;2023-08-07T02:41:16;7.43;;;2.33;;
42036;SDS011;30340;52.004;5.908;2023-08-07T02:43:41;8.68;;;2.75;;
42036;SDS011;30340;52.004;5.908;2023-08-07T02:46:08;7.07;;;2.42;;
42036;SDS011;30340;52.004;5.908;2023-08-07T02:48:33;5.97;;;2.22;;
42036;SDS011;30340;52.004;5.908;2023-08-07T02:50:59;5.60;;;2.13;;
42036;SDS011;30340;52.004;5.908;2023-08-07T02:53:24;5.90;;;2.55;;
42036;SDS011;30340;52.004;5.908;2023-08-07T02:55:50;5.40;;;1.95;;
42036;SDS011;30340;52.004;5.908;2023-08-07T02:58:15;5.22;;;2.45;;
42036;SDS011;30340;52.004;5.908;2023-08-07T03:00:41;5.93;;;2.45;;
42036;SDS011;30340;52.004;5.908;2023-08-07T03:03:08;6.82;;;2.75;;
42036;SDS011;30340;52.004;5.908;2023-08-07T03:05:34;5.50;;;2.50;;
42036;SDS011;30340;52.004;5.908;2023-08-07T03:07:59;6.47;;;2.90;;
42036;SDS011;30340;52.004;5.908;2023-08-07T03:10:25;6.25;;;2.90;;
42036;SDS011;30340;52.004;5.908;2023-08-07T03:12:50;7.57;;;3.00;;
42036;SDS011;30340;52.004;5.908;2023-08-07T03:15:16;8.20;;;2.80;;
42036;SDS011;30340;52.004;5.908;2023-08-07T03:17:42;5.55;;;2.63;;
42036;SDS011;30340;52.004;5.908;2023-08-07T03:20:08;8.90;;;2.95;;
42036;SDS011;30340;52.004;5.908;2023-08-07T03:22:34;7.93;;;2.70;;
42036;SDS011;30340;52.004;5.908;2023-08-07T03:25:00;10.13;;;2.65;;
42036;SDS011;30340;52.004;5.908;2023-08-07T03:27:25;5.82;;;2.33;;
42036;SDS011;30340;52.004;5.908;2023-08-07T03:29:51;6.40;;;2.60;;
42036;SDS011;30340;52.004;5.908;2023-08-07T03:32:16;5.28;;;2.40;;
42036;SDS011;30340;52.004;5.908;2023-08-07T03:34:42;7.97;;;2.80;;
42036;SDS011;30340;52.004;5.908;2023-08-07T03:37:08;8.25;;;2.53;;
42036;SDS011;30340;52.004;5.908;2023-08-07T03:39:34;7.45;;;2.50;;
42036;SDS011;30340;52.004;5.908;2023-08-07T03:41:59;6.13;;;2.20;;
42036;SDS011;30340;52.004;5.908;2023-08-07T03:44:25;5.30;;;2.20;;
42036;SDS011;30340;52.004;5.908;2023-08-07T03:46:50;6.78;;;2.17;;
42036;SDS011;30340;52.004;5.908;2023-08-07T03:49:16;5.25;;;2.10;;
42036;SDS011;30340;52.004;5.908;2023-08-07T03:51:42;6.35;;;2.10;;
42036;SDS011;30340;52.004;5.908;2023-08-07T03:54:08;6.10;;;2.20;;
42036;SDS011;30340;52.004;5.908;2023-08-07T03:56:33;6.20;;;2.15;;
42036;SDS011;30340;52.004;5.908;2023-08-07T03:59:02;7.22;;;2.50;;
42036;SDS011;30340;52.004;5.908;2023-08-07T04:01:27;5.18;;;2.30;;
42036;SDS011;30340;52.004;5.908;2023-08-07T04:03:53;6.72;;;2.45;;
42036;SDS011;30340;52.004;5.908;2023-08-07T04:06:19;9.18;;;2.50;;
42036;SDS011;30340;52.004;5.908;2023-08-07T04:08:46;6.13;;;2.10;;
42036;SDS011;30340;52.004;5.908;2023-08-07T04:11:12;7.50;;;2.17;;
42036;SDS011;30340;52.004;5.908;2023-08-07T04:13:37;5.43;;;1.98;;
42036;SDS011;30340;52.004;5.908;2023-08-07T04:16:03;5.95;;;2.13;;
42036;SDS011;30340;52.004;5.908;2023-08-07T04:18:30;6.03;;;2.00;;
42036;SDS011;30340;52.004;5.908;2023-08-07T04:20:56;4.18;;;1.95;;
42036;SDS011;30340;52.004;5.908;2023-08-07T04:23:22;5.22;;;2.20;;
42036;SDS011;30340;52.004;5.908;2023-08-07T04:25:49;4.68;;;2.13;;
42036;SDS011;30340;52.004;5.908;2023-08-07T04:28:15;3.55;;;1.70;;
42036;SDS011;30340;52.004;5.908;2023-08-07T04:30:41;4.95;;;2.20;;
42036;SDS011;30340;52.004;5.908;2023-08-07T04:33:07;5.60;;;1.70;;
42036;SDS011;30340;52.004;5.908;2023-08-07T04:35:33;3.92;;;1.70;;
42036;SDS011;30340;52.004;5.908;2023-08-07T04:37:59;3.72;;;1.60;;
42036;SDS011;30340;52.004;5.908;2023-08-07T04:40:26;5.50;;;2.13;;
42036;SDS011;30340;52.004;5.908;2023-08-07T04:42:51;5.38;;;1.85;;
42036;SDS011;30340;52.004;5.908;2023-08-07T04:45:17;4.25;;;1.88;;
42036;SDS011;30340;52.004;5.908;2023-08-07T04:47:42;4.75;;;1.63;;
42036;SDS011;30340;52.004;5.908;2023-08-07T04:50:08;3.72;;;1.75;;
42036;SDS011;30340;52.004;5.908;2023-08-07T04:52:34;3.47;;;1.70;;
42036;SDS011;30340;52.004;5.908;2023-08-07T04:55:01;2.78;;;1.70;;
42036;SDS011;30340;52.004;5.908;2023-08-07T04:57:26;6.30;;;1.92;;
42036;SDS011;30340;52.004;5.908;2023-08-07T04:59:52;5.68;;;2.28;;
42036;SDS011;30340;52.004;5.908;2023-08-07T05:02:18;5.57;;;1.85;;
42036;SDS011;30340;52.004;5.908;2023-08-07T05:04:44;8.25;;;2.80;;
42036;SDS011;30340;52.004;5.908;2023-08-07T05:07:10;4.68;;;1.80;;
42036;SDS011;30340;52.004;5.908;2023-08-07T05:09:37;4.80;;;1.80;;
42036;SDS011;30340;52.004;5.908;2023-08-07T05:12:03;6.05;;;2.10;;
42036;SDS011;30340;52.004;5.908;2023-08-07T05:14:29;5.35;;;2.10;;
42036;SDS011;30340;52.004;5.908;2023-08-07T05:16:55;6.97;;;2.42;;
42036;SDS011;30340;52.004;5.908;2023-08-07T05:19:20;6.45;;;2.20;;
42036;SDS011;30340;52.004;5.908;2023-08-07T05:21:47;5.78;;;2.20;;
42036;SDS011;30340;52.004;5.908;2023-08-07T05:24:16;6.25;;;2.33;;
42036;SDS011;30340;52.004;5.908;2023-08-07T05:26:42;6.20;;;2.42;;
42036;SDS011;30340;52.004;5.908;2023-08-07T05:29:08;7.00;;;2.55;;
42036;SDS011;30340;52.004;5.908;2023-08-07T05:31:33;5.35;;;2.00;;
42036;SDS011;30340;52.004;5.908;2023-08-07T05:33:59;5.55;;;2.33;;
42036;SDS011;30340;52.004;5.908;2023-08-07T05:36:25;6.82;;;2.60;;
42036;SDS011;30340;52.004;5.908;2023-08-07T05:38:50;7.72;;;2.65;;
42036;SDS011;30340;52.004;5.908;2023-08-07T05:41:16;8.18;;;2.47;;
42036;SDS011;30340;52.004;5.908;2023-08-07T05:43:42;8.27;;;2.58;;
42036;SDS011;30340;52.004;5.908;2023-08-07T05:46:07;6.20;;;2.47;;
42036;SDS011;30340;52.004;5.908;2023-08-07T05:48:33;10.07;;;3.00;;
42036;SDS011;30340;52.004;5.908;2023-08-07T05:50:59;7.20;;;2.47;;
42036;SDS011;30340;52.004;5.908;2023-08-07T05:53:24;5.68;;;2.42;;
42036;SDS011;30340;52.004;5.908;2023-08-07T05:55:50;8.13;;;2.80;;
42036;SDS011;30340;52.004;5.908;2023-08-07T05:58:16;6.78;;;2.40;;
42036;SDS011;30340;52.004;5.908;2023-08-07T06:00:41;7.93;;;2.50;;
42036;SDS011;30340;52.004;5.908;2023-08-07T06:03:07;5.25;;;2.38;;
42036;SDS011;30340;52.004;5.908;2023-08-07T06:05:33;6.40;;;2.42;;
42036;SDS011;30340;52.004;5.908;2023-08-07T06:07:59;6.63;;;2.40;;
42036;SDS011;30340;52.004;5.908;2023-08-07T06:10:25;6.32;;;2.45;;
42036;SDS011;30340;52.004;5.908;2023-08-07T06:12:51;7.75;;;2.65;;
42036;SDS011;30340;52.004;5.908;2023-08-07T06:15:17;7.60;;;2.67;;
42036;SDS011;30340;52.004;5.908;2023-08-07T06:17:42;7.55;;;2.50;;
42036;SDS011;30340;52.004;5.908;2023-08-07T06:20:08;5.13;;;2.30;;
42036;SDS011;30340;52.004;5.908;2023-08-07T06:22:35;7.25;;;2.40;;
42036;SDS011;30340;52.004;5.908;2023-08-07T06:25:01;7.40;;;2.30;;
42036;SDS011;30340;52.004;5.908;2023-08-07T06:27:26;6.50;;;2.42;;
42036;SDS011;30340;52.004;5.908;2023-08-07T06:29:52;8.73;;;3.08;;
42036;SDS011;30340;52.004;5.908;2023-08-07T06:32:18;5.93;;;2.30;;
42036;SDS011;30340;52.004;5.908;2023-08-07T06:34:43;9.77;;;3.10;;
42036;SDS011;30340;52.004;5.908;2023-08-07T06:37:09;9.85;;;2.70;;
42036;SDS011;30340;52.004;5.908;2023-08-07T06:39:35;7.55;;;2.80;;
42036;SDS011;30340;52.004;5.908;2023-08-07T06:42:01;8.13;;;2.90;;
42036;SDS011;30340;52.004;5.908;2023-08-07T06:44:27;6.60;;;2.35;;
42036;SDS011;30340;52.004;5.908;2023-08-07T06:46:54;7.80;;;2.53;;
42036;SDS011;30340;52.004;5.908;2023-08-07T06:49:20;8.48;;;3.00;;
42036;SDS011;30340;52.004;5.908;2023-08-07T06:51:45;7.15;;;2.47;;
42036;SDS011;30340;52.004;5.908;2023-08-07T06:54:11;9.35;;;3.17;;
42036;SDS011;30340;52.004;5.908;2023-08-07T06:56:36;7.85;;;3.15;;
42036;SDS011;30340;52.004;5.908;2023-08-07T06:59:05;9.00;;;3.30;;
42036;SDS011;30340;52.004;5.908;2023-08-07T07:01:31;8.13;;;2.90;;
42036;SDS011;30340;52.004;5.908;2023-08-07T07:03:57;10.40;;;2.90;;
42036;SDS011;30340;52.004;5.908;2023-08-07T07:06:22;9.25;;;3.25;;
42036;SDS011;30340;52.004;5.908;2023-08-07T07:08:50;9.18;;;3.15;;
42036;SDS011;30340;52.004;5.908;2023-08-07T07:11:19;8.93;;;3.03;;
42036;SDS011;30340;52.004;5.908;2023-08-07T07:13:45;7.90;;;2.67;;
42036;SDS011;30340;52.004;5.908;2023-08-07T07:16:11;6.13;;;2.47;;
42036;SDS011;30340;52.004;5.908;2023-08-07T07:18:38;6.78;;;2.47;;
42036;SDS011;30340;52.004;5.908;2023-08-07T07:21:04;7.90;;;2.90;;
42036;SDS011;30340;52.004;5.908;2023-08-07T07:23:29;5.93;;;2.20;;
42036;SDS011;30340;52.004;5.908;2023-08-07T07:25:55;9.02;;;2.80;;
42036;SDS011;30340;52.004;5.908;2023-08-07T07:28:22;7.40;;;2.70;;
42036;SDS011;30340;52.004;5.908;2023-08-07T07:30:47;9.73;;;2.92;;
42036;SDS011;30340;52.004;5.908;2023-08-07T07:33:14;5.82;;;2.00;;
42036;SDS011;30340;52.004;5.908;2023-08-07T07:35:39;8.20;;;2.90;;
42036;SDS011;30340;52.004;5.908;2023-08-07T07:38:05;6.25;;;2.65;;
42036;SDS011;30340;52.004;5.908;2023-08-07T07:40:32;7.18;;;2.45;;
42036;SDS011;30340;52.004;5.908;2023-08-07T07:42:59;9.38;;;2.50;;
42036;SDS011;30340;52.004;5.908;2023-08-07T07:45:25;5.78;;;2.47;;
42036;SDS011;30340;52.004;5.908;2023-08-07T07:47:50;9.18;;;2.70;;
42036;SDS011;30340;52.004;5.908;2023-08-07T07:50:16;9.98;;;2.67;;
42036;SDS011;30340;52.004;5.908;2023-08-07T07:52:41;7.55;;;2.58;;
42036;SDS011;30340;52.004;5.908;2023-08-07T07:55:08;7.05;;;2.65;;
42036;SDS011;30340;52.004;5.908;2023-08-07T07:57:34;5.75;;;2.28;;
42036;SDS011;30340;52.004;5.908;2023-08-07T08:00:00;8.90;;;2.60;;
42036;SDS011;30340;52.004;5.908;2023-08-07T08:02:26;7.78;;;2.47;;
42036;SDS011;30340;52.004;5.908;2023-08-07T08:04:52;11.02;;;3.38;;
42036;SDS011;30340;52.004;5.908;2023-08-07T08:07:17;6.53;;;2.67;;
42036;SDS011;30340;52.004;5.908;2023-08-07T08:09:43;8.48;;;2.80;;
42036;SDS011;30340;52.004;5.908;2023-08-07T08:12:10;10.73;;;3.50;;
42036;SDS011;30340;52.004;5.908;2023-08-07T08:14:36;10.85;;;3.25;;
42036;SDS011;30340;52.004;5.908;2023-08-07T08:17:01;6.88;;;2.85;;
42036;SDS011;30340;52.004;5.908;2023-08-07T08:19:27;8.90;;;2.88;;
42036;SDS011;30340;52.004;5.908;2023-08-07T08:21:53;6.88;;;2.92;;
42036;SDS011;30340;52.004;5.908;2023-08-07T08:24:18;7.38;;;2.90;;
42036;SDS011;30340;52.004;5.908;2023-08-07T08:26:44;9.05;;;3.40;;
42036;SDS011;30340;52.004;5.908;2023-08-07T08:29:10;8.80;;;2.90;;
42036;SDS011;30340;52.004;5.908;2023-08-07T08:31:39;7.63;;;2.67;;
42036;SDS011;30340;52.004;5.908;2023-08-07T08:34:05;7.38;;;2.97;;
42036;SDS011;30340;52.004;5.908;2023-08-07T08:36:30;7.68;;;2.70;;
42036;SDS011;30340;52.004;5.908;2023-08-07T08:38:56;11.63;;;3.53;;
42036;SDS011;30340;52.004;5.908;2023-08-07T08:41:22;8.57;;;2.88;;
42036;SDS011;30340;52.004;5.908;2023-08-07T08:43:48;7.70;;;2.40;;
42036;SDS011;30340;52.004;5.908;2023-08-07T08:46:17;9.27;;;3.05;;
42036;SDS011;30340;52.004;5.908;2023-08-07T08:48:46;7.80;;;2.88;;
42036;SDS011;30340;52.004;5.908;2023-08-07T08:51:20;6.85;;;2.70;;
42036;SDS011;30340;52.004;5.908;2023-08-07T08:53:46;6.20;;;2.40;;
42036;SDS011;30340;52.004;5.908;2023-08-07T08:56:14;7.40;;;2.65;;
42036;SDS011;30340;52.004;5.908;2023-08-07T08:58:40;8.43;;;2.70;;
42036;SDS011;30340;52.004;5.908;2023-08-07T09:01:06;6.60;;;2.78;;
42036;SDS011;30340;52.004;5.908;2023-08-07T09:03:33;8.00;;;3.15;;
42036;SDS011;30340;52.004;5.908;2023-08-07T09:05:59;6.97;;;2.53;;
42036;SDS011;30340;52.004;5.908;2023-08-07T09:08:26;8.15;;;2.63;;
42036;SDS011;30340;52.004;5.908;2023-08-07T09:10:54;10.63;;;2.67;;
42036;SDS011;30340;52.004;5.908;2023-08-07T09:13:22;8.85;;;2.97;;
42036;SDS011;30340;52.004;5.908;2023-08-07T09:15:48;9.45;;;2.75;;
42036;SDS011;30340;52.004;5.908;2023-08-07T09:18:15;6.40;;;2.70;;
42036;SDS011;30340;52.004;5.908;2023-08-07T09:20:42;7.10;;;2.85;;
42036;SDS011;30340;52.004;5.908;2023-08-07T09:23:08;8.05;;;2.85;;
42036;SDS011;30340;52.004;5.908;2023-08-07T09:25:34;9.75;;;3.38;;
42036;SDS011;30340;52.004;5.908;2023-08-07T09:28:03;8.18;;;3.03;;
42036;SDS011;30340;52.004;5.908;2023-08-07T09:30:30;10.75;;;2.70;;
42036;SDS011;30340;52.004;5.908;2023-08-07T09:32:58;6.35;;;2.42;;
42036;SDS011;30340;52.004;5.908;2023-08-07T09:35:24;9.07;;;3.10;;
42036;SDS011;30340;52.004;5.908;2023-08-07T09:37:50;7.18;;;2.83;;
42036;SDS011;30340;52.004;5.908;2023-08-07T09:40:16;6.50;;;2.70;;
42036;SDS011;30340;52.004;5.908;2023-08-07T09:42:43;7.88;;;2.60;;
42036;SDS011;30340;52.004;5.908;2023-08-07T09:45:27;7.30;;;2.95;;
42036;SDS011;30340;52.004;5.908;2023-08-07T09:48:00;9.57;;;2.40;;
42036;SDS011;30340;52.004;5.908;2023-08-07T09:50:27;7.70;;;2.60;;
42036;SDS011;30340;52.004;5.908;2023-08-07T09:52:53;5.22;;;2.30;;
42036;SDS011;30340;52.004;5.908;2023-08-07T09:55:23;6.25;;;2.17;;
42036;SDS011;30340;52.004;5.908;2023-08-07T09:57:49;8.85;;;2.80;;
42036;SDS011;30340;52.004;5.908;2023-08-07T10:00:15;5.30;;;2.08;;
42036;SDS011;30340;52.004;5.908;2023-08-07T10:02:44;7.85;;;2.58;;
42036;SDS011;30340;52.004;5.908;2023-08-07T10:05:11;6.22;;;2.40;;
42036;SDS011;30340;52.004;5.908;2023-08-07T10:07:38;7.40;;;2.53;;
42036;SDS011;30340;52.004;5.908;2023-08-07T10:10:04;6.38;;;2.00;;
42036;SDS011;30340;52.004;5.908;2023-08-07T10:12:32;6.22;;;2.60;;
42036;SDS011;30340;52.004;5.908;2023-08-07T10:14:58;5.72;;;2.20;;
42036;SDS011;30340;52.004;5.908;2023-08-07T10:17:25;8.55;;;2.60;;
42036;SDS011;30340;52.004;5.908;2023-08-07T10:19:51;5.60;;;2.58;;
42036;SDS011;30340;52.004;5.908;2023-08-07T10:22:18;7.07;;;2.67;;
42036;SDS011;30340;52.004;5.908;2023-08-07T10:24:44;5.70;;;2.42;;
42036;SDS011;30340;52.004;5.908;2023-08-07T10:27:13;5.93;;;2.00;;
42036;SDS011;30340;52.004;5.908;2023-08-07T10:29:43;5.72;;;2.20;;
42036;SDS011;30340;52.004;5.908;2023-08-07T10:32:10;5.25;;;2.10;;
42036;SDS011;30340;52.004;5.908;2023-08-07T10:34:37;5.18;;;2.13;;
42036;SDS011;30340;52.004;5.908;2023-08-07T10:37:06;5.32;;;2.60;;
42036;SDS011;30340;52.004;5.908;2023-08-07T10:39:32;6.65;;;2.05;;
42036;SDS011;30340;52.004;5.908;2023-08-07T10:41:57;6.22;;;2.13;;
42036;SDS011;30340;52.004;5.908;2023-08-07T10:44:24;7.15;;;2.15;;
42036;SDS011;30340;52.004;5.908;2023-08-07T10:46:54;7.43;;;2.47;;
42036;SDS011;30340;52.004;5.908;2023-08-07T10:49:37;5.70;;;2.25;;
42036;SDS011;30340;52.004;5.908;2023-08-07T10:52:14;4.13;;;2.10;;
42036;SDS011;30340;52.004;5.908;2023-08-07T10:54:47;6.07;;;2.10;;
42036;SDS011;30340;52.004;5.908;2023-08-07T10:57:15;8.45;;;2.65;;
42036;SDS011;30340;52.004;5.908;2023-08-07T11:00:01;4.55;;;2.15;;
42036;SDS011;30340;52.004;5.908;2023-08-07T11:02:33;6.47;;;2.40;;
42036;SDS011;30340;52.004;5.908;2023-08-07T11:05:04;5.60;;;2.28;;
42036;SDS011;30340;52.004;5.908;2023-08-07T11:07:30;5.18;;;2.40;;
42036;SDS011;30340;52.004;5.908;2023-08-07T11:09:56;6.10;;;2.10;;
42036;SDS011;30340;52.004;5.908;2023-08-07T11:12:29;5.18;;;2.20;;
42036;SDS011;30340;52.004;5.908;2023-08-07T11:14:55;4.95;;;1.98;;
42036;SDS011;30340;52.004;5.908;2023-08-07T11:17:24;5.28;;;1.90;;
42036;SDS011;30340;52.004;5.908;2023-08-07T11:19:50;4.57;;;1.98;;
42036;SDS011;30340;52.004;5.908;2023-08-07T11:22:16;5.00;;;2.30;;
42036;SDS011;30340;52.004;5.908;2023-08-07T11:24:42;6.28;;;2.00;;
42036;SDS011;30340;52.004;5.908;2023-08-07T11:27:08;4.30;;;2.10;;
42036;SDS011;30340;52.004;5.908;2023-08-07T11:29:33;4.35;;;1.95;;
42036;SDS011;30340;52.004;5.908;2023-08-07T11:31:59;4.53;;;2.00;;
42036;SDS011;30340;52.004;5.908;2023-08-07T11:34:25;4.95;;;2.00;;
42036;SDS011;30340;52.004;5.908;2023-08-07T11:36:50;5.05;;;2.17;;
42036;SDS011;30340;52.004;5.908;2023-08-07T11:39:16;4.47;;;1.95;;
42036;SDS011;30340;52.004;5.908;2023-08-07T11:41:43;5.03;;;1.95;;
42036;SDS011;30340;52.004;5.908;2023-08-07T11:44:09;4.55;;;1.92;;
42036;SDS011;30340;52.004;5.908;2023-08-07T11:46:35;3.72;;;1.90;;
42036;SDS011;30340;52.004;5.908;2023-08-07T11:49:01;8.68;;;2.17;;
42036;SDS011;30340;52.004;5.908;2023-08-07T11:51:29;6.53;;;2.55;;
42036;SDS011;30340;52.004;5.908;2023-08-07T11:53:54;6.65;;;2.42;;
42036;SDS011;30340;52.004;5.908;2023-08-07T11:56:23;5.13;;;1.85;;
42036;SDS011;30340;52.004;5.908;2023-08-07T11:58:48;5.47;;;2.08;;
42036;SDS011;30340;52.004;5.908;2023-08-07T12:01:17;4.07;;;2.00;;
42036;SDS011;30340;52.004;5.908;2023-08-07T12:03:55;4.93;;;1.80;;
42036;SDS011;30340;52.004;5.908;2023-08-07T12:06:22;5.88;;;2.35;;
42036;SDS011;30340;52.004;5.908;2023-08-07T12:08:49;8.27;;;2.65;;
42036;SDS011;30340;52.004;5.908;2023-08-07T12:11:18;6.15;;;2.05;;
42036;SDS011;30340;52.004;5.908;2023-08-07T12:13:46;5.82;;;2.00;;
42036;SDS011;30340;52.004;5.908;2023-08-07T12:16:12;6.50;;;2.08;;
42036;SDS011;30340;52.004;5.908;2023-08-07T12:21:20;5.35;;;1.90;;
42036;SDS011;30340;52.004;5.908;2023-08-07T12:23:50;5.97;;;1.90;;
42036;SDS011;30340;52.004;5.908;2023-08-07T12:26:19;5.97;;;2.20;;
42036;SDS011;30340;52.004;5.908;2023-08-07T12:28:45;5.95;;;2.38;;
42036;SDS011;30340;52.004;5.908;2023-08-07T12:31:10;4.90;;;1.80;;
42036;SDS011;30340;52.004;5.908;2023-08-07T12:33:36;4.05;;;1.83;;
42036;SDS011;30340;52.004;5.908;2023-08-07T12:36:02;6.03;;;2.20;;
42036;SDS011;30340;52.004;5.908;2023-08-07T12:38:28;5.63;;;2.00;;
42036;SDS011;30340;52.004;5.908;2023-08-07T12:40:54;5.40;;;1.80;;
42036;SDS011;30340;52.004;5.908;2023-08-07T12:43:20;3.67;;;1.70;;
42036;SDS011;30340;52.004;5.908;2023-08-07T12:45:46;4.47;;;1.80;;
42036;SDS011;30340;52.004;5.908;2023-08-07T12:48:11;7.20;;;2.13;;
42036;SDS011;30340;52.004;5.908;2023-08-07T12:50:37;4.45;;;1.70;;
42036;SDS011;30340;52.004;5.908;2023-08-07T12:53:04;5.97;;;1.73;;
42036;SDS011;30340;52.004;5.908;2023-08-07T12:55:31;5.35;;;1.98;;
42036;SDS011;30340;52.004;5.908;2023-08-07T12:57:56;3.25;;;1.80;;
42036;SDS011;30340;52.004;5.908;2023-08-07T13:00:22;2.75;;;1.65;;
42036;SDS011;30340;52.004;5.908;2023-08-07T13:02:49;4.70;;;1.80;;
42036;SDS011;30340;52.004;5.908;2023-08-07T13:05:16;2.88;;;1.60;;
42036;SDS011;30340;52.004;5.908;2023-08-07T13:07:43;4.47;;;2.05;;
42036;SDS011;30340;52.004;5.908;2023-08-07T13:10:10;7.78;;;2.25;;
42036;SDS011;30340;52.004;5.908;2023-08-07T13:12:38;3.65;;;1.83;;
42036;SDS011;30340;52.004;5.908;2023-08-07T13:15:06;6.28;;;1.77;;
42036;SDS011;30340;52.004;5.908;2023-08-07T13:17:34;4.25;;;1.85;;
42036;SDS011;30340;52.004;5.908;2023-08-07T13:20:01;4.80;;;1.80;;
42036;SDS011;30340;52.004;5.908;2023-08-07T13:22:30;4.25;;;1.77;;
42036;SDS011;30340;52.004;5.908;2023-08-07T13:24:55;5.65;;;1.90;;
42036;SDS011;30340;52.004;5.908;2023-08-07T13:27:21;4.80;;;1.70;;
42036;SDS011;30340;52.004;5.908;2023-08-07T13:29:46;3.90;;;1.58;;
42036;SDS011;30340;52.004;5.908;2023-08-07T13:32:13;4.38;;;1.58;;
42036;SDS011;30340;52.004;5.908;2023-08-07T13:34:38;8.20;;;1.75;;
42036;SDS011;30340;52.004;5.908;2023-08-07T13:37:04;6.25;;;1.80;;
42036;SDS011;30340;52.004;5.908;2023-08-07T13:39:30;3.10;;;1.50;;
42036;SDS011;30340;52.004;5.908;2023-08-07T13:41:56;4.57;;;1.55;;
42036;SDS011;30340;52.004;5.908;2023-08-07T13:44:22;5.63;;;1.70;;
42036;SDS011;30340;52.004;5.908;2023-08-07T13:46:48;3.83;;;1.50;;
42036;SDS011;30340;52.004;5.908;2023-08-07T13:49:13;4.80;;;1.80;;
42036;SDS011;30340;52.004;5.908;2023-08-07T13:51:40;6.53;;;1.80;;
42036;SDS011;30340;52.004;5.908;2023-08-07T13:54:06;4.32;;;1.63;;
42036;SDS011;30340;52.004;5.908;2023-08-07T13:56:32;3.65;;;1.70;;
42036;SDS011;30340;52.004;5.908;2023-08-07T13:58:58;4.30;;;1.50;;
42036;SDS011;30340;52.004;5.908;2023-08-07T14:01:25;4.03;;;1.70;;
42036;SDS011;30340;52.004;5.908;2023-08-07T14:03:50;4.82;;;1.70;;
42036;SDS011;30340;52.004;5.908;2023-08-07T14:06:16;2.55;;;1.40;;
42036;SDS011;30340;52.004;5.908;2023-08-07T14:08:42;3.05;;;1.20;;
42036;SDS011;30340;52.004;5.908;2023-08-07T14:11:07;6.03;;;1.83;;
42036;SDS011;30340;52.004;5.908;2023-08-07T14:13:33;5.78;;;1.90;;
42036;SDS011;30340;52.004;5.908;2023-08-07T14:15:59;3.75;;;1.73;;
42036;SDS011;30340;52.004;5.908;2023-08-07T14:18:24;4.65;;;1.40;;
42036;SDS011;30340;52.004;5.908;2023-08-07T14:20:50;3.22;;;1.70;;
42036;SDS011;30340;52.004;5.908;2023-08-07T14:23:15;2.70;;;1.35;;
42036;SDS011;30340;52.004;5.908;2023-08-07T14:25:41;2.10;;;1.30;;
42036;SDS011;30340;52.004;5.908;2023-08-07T14:28:07;2.58;;;1.30;;
42036;SDS011;30340;52.004;5.908;2023-08-07T14:30:33;3.15;;;1.20;;
42036;SDS011;30340;52.004;5.908;2023-08-07T14:32:59;2.80;;;1.23;;
42036;SDS011;30340;52.004;5.908;2023-08-07T14:35:24;2.40;;;1.38;;
42036;SDS011;30340;52.004;5.908;2023-08-07T14:37:50;3.92;;;1.50;;
42036;SDS011;30340;52.004;5.908;2023-08-07T14:40:15;2.58;;;1.20;;
42036;SDS011;30340;52.004;5.908;2023-08-07T14:42:41;2.58;;;1.10;;
42036;SDS011;30340;52.004;5.908;2023-08-07T14:45:06;2.45;;;1.30;;
42036;SDS011;30340;52.004;5.908;2023-08-07T14:47:32;2.85;;;1.60;;
42036;SDS011;30340;52.004;5.908;2023-08-07T14:49:58;4.03;;;1.40;;
42036;SDS011;30340;52.004;5.908;2023-08-07T14:52:24;2.38;;;1.13;;